Time;durP1;ratioP1;P1;durP2;ratioP2;P2;SDS_P1;SDS_P2;PMS_P1;PMS_P2;Temp;Humidity;BMP_temperature;BMP_pressure;BME280_temperature;BME280_humidity;BME280_pressure;Samples;Min_cycle;Max_cycle;Signal;HPM_P1;HPM_P2
2023/06/02 00:01:43;;;;;;;5.57;2.90;;;17.00;98.00;;;;;;5034962;28;20534;-69
2023/06/02 00:04:12;;;;;;;5.00;2.90;;;16.90;98.00;;;;;;5035413;28;20454;-69
2023/06/02 00:06:39;;;;;;;6.53;3.00;;;16.80;98.00;;;;;;5035182;28;20459;-69
2023/06/02 00:09:08;;;;;;;4.67;2.93;;;17.10;98.00;;;;;;5035121;28;20483;-69
2023/06/02 00:11:35;;;;;;;7.00;3.60;;;17.00;98.00;;;;;;5035095;28;20462;-68
2023/06/02 00:14:04;;;;;;;6.23;3.07;;;16.60;98.00;;;;;;5035148;28;20459;-68
2023/06/02 00:16:33;;;;;;;6.00;3.40;;;16.60;98.00;;;;;;5034673;28;20466;-69
2023/06/02 00:19:00;;;;;;;6.63;3.13;;;16.60;98.00;;;;;;5034893;28;20502;-69
2023/06/02 00:21:29;;;;;;;5.03;2.83;;;16.40;98.00;;;;;;5034994;28;20553;-69
2023/06/02 00:23:56;;;;;;;6.00;3.20;;;16.20;98.00;;;;;;5035160;28;20516;-71
2023/06/02 00:26:26;;;;;;;7.50;3.47;;;16.20;98.00;;;;;;5034829;28;20462;-70
2023/06/02 00:28:55;;;;;;;7.30;3.10;;;16.20;98.00;;;;;;5035148;28;20574;-70
2023/06/02 00:31:23;;;;;;;4.83;3.20;;;16.10;98.00;;;;;;5034906;28;20969;-70
2023/06/02 00:33:50;;;;;;;5.57;3.30;;;16.20;98.00;;;;;;5034671;28;20466;-69
2023/06/02 00:36:17;;;;;;;6.30;3.20;;;16.20;98.00;;;;;;5016809;28;20458;-69
2023/06/02 00:38:46;;;;;;;4.50;2.90;;;16.30;98.00;;;;;;5034739;28;20458;-69
2023/06/02 00:41:13;;;;;;;6.33;2.93;;;16.20;98.00;;;;;;5034310;28;20463;-69
2023/06/02 00:43:41;;;;;;;5.30;3.00;;;16.20;98.00;;;;;;5017068;28;20455;-69
2023/06/02 00:46:08;;;;;;;6.20;3.43;;;16.00;98.00;;;;;;5034222;28;20465;-70
2023/06/02 00:48:35;;;;;;;5.30;3.50;;;15.90;98.00;;;;;;5034435;28;20490;-68
2023/06/02 00:51:03;;;;;;;4.80;3.10;;;15.90;98.00;;;;;;5034372;28;20932;-69
2023/06/02 00:53:31;;;;;;;6.40;3.33;;;15.90;98.00;;;;;;5034313;28;20466;-68
2023/06/02 00:56:01;;;;;;;4.77;3.10;;;15.80;98.00;;;;;;5034337;28;20455;-69
2023/06/02 00:58:29;;;;;;;6.03;3.03;;;15.80;98.00;;;;;;5034233;28;20531;-69
2023/06/02 01:00:56;;;;;;;5.90;3.23;;;15.80;98.00;;;;;;5033564;28;20455;-69
2023/06/02 01:03:24;;;;;;;6.00;3.53;;;15.80;98.00;;;;;;5033546;28;20470;-69
2023/06/02 01:05:55;;;;;;;4.80;2.90;;;15.70;98.00;;;;;;5034130;28;20455;-69
2023/06/02 01:08:22;;;;;;;6.00;3.30;;;15.70;98.00;;;;;;5034035;28;20577;-69
2023/06/02 01:10:51;;;;;;;6.63;3.50;;;15.70;98.00;;;;;;5034188;28;20466;-69
2023/06/02 01:13:20;;;;;;;5.93;2.87;;;15.50;98.00;;;;;;5034114;28;20458;-69
2023/06/02 01:15:47;;;;;;;6.47;2.90;;;15.70;98.00;;;;;;5034017;28;20826;-69
2023/06/02 01:18:15;;;;;;;5.50;2.63;;;15.80;98.00;;;;;;5033701;28;20936;-69
2023/06/02 01:20:51;;;;;;;6.80;2.70;;;15.90;98.00;;;;;;5016172;28;20517;-68
2023/06/02 01:23:21;;;;;;;6.80;2.80;;;15.80;98.00;;;;;;5033879;28;20458;-69
2023/06/02 01:25:53;;;;;;;8.13;3.50;;;15.50;98.00;;;;;;5033901;28;20463;-68
2023/06/02 01:28:21;;;;;;;6.40;3.27;;;15.20;98.00;;;;;;5033864;28;20860;-70
2023/06/02 01:30:50;;;;;;;6.33;3.00;;;15.30;98.00;;;;;;5033214;28;20549;-70
2023/06/02 01:33:23;;;;;;;4.70;2.90;;;15.00;98.00;;;;;;5015845;28;20482;-69
2023/06/02 01:35:54;;;;;;;5.43;2.80;;;15.00;98.00;;;;;;5033386;28;20470;-70
2023/06/02 01:38:24;;;;;;;4.73;2.80;;;15.00;98.00;;;;;;5033552;28;20520;-68
2023/06/02 01:40:55;;;;;;;5.27;2.77;;;15.10;98.00;;;;;;5033494;28;20837;-70
2023/06/02 01:43:22;;;;;;;5.83;2.87;;;14.90;98.00;;;;;;5033386;28;20505;-69
2023/06/02 01:45:49;;;;;;;15.93;3.93;;;15.00;98.00;;;;;;5033158;28;20463;-69
2023/06/02 01:48:17;;;;;;;5.63;2.90;;;14.80;98.00;;;;;;5033178;28;20988;-70
2023/06/02 01:50:47;;;;;;;5.43;2.60;;;14.80;98.00;;;;;;5015836;28;20463;-69
2023/06/02 01:53:15;;;;;;;5.53;3.03;;;14.90;98.00;;;;;;5033239;28;20917;-70
2023/06/02 01:55:42;;;;;;;5.53;2.90;;;14.70;98.00;;;;;;5032864;28;20455;-70
2023/06/02 01:58:11;;;;;;;5.70;2.90;;;14.50;98.00;;;;;;5032420;28;20454;-69
2023/06/02 02:00:37;;;;;;;6.27;2.83;;;14.60;98.00;;;;;;5032418;28;20460;-68
2023/06/02 02:03:05;;;;;;;5.10;3.13;;;14.60;98.00;;;;;;5032483;28;20509;-69
2023/06/02 02:05:32;;;;;;;6.90;3.30;;;14.50;98.00;;;;;;5032131;28;20956;-70
2023/06/02 02:08:03;;;;;;;7.60;3.40;;;14.40;98.00;;;;;;5032282;28;20479;-70
2023/06/02 02:10:30;;;;;;;5.00;3.27;;;14.30;98.00;;;;;;5032717;28;20466;-68
2023/06/02 02:12:57;;;;;;;6.00;3.07;;;14.10;98.00;;;;;;5032689;28;20455;-69
2023/06/02 02:15:27;;;;;;;4.77;2.70;;;14.10;98.00;;;;;;5032844;28;20473;-69
2023/06/02 02:17:56;;;;;;;4.23;2.80;;;14.40;98.00;;;;;;5033073;28;20570;-69
2023/06/02 02:20:23;;;;;;;4.83;2.70;;;14.50;98.00;;;;;;5032652;28;21022;-68
2023/06/02 02:22:50;;;;;;;7.10;3.00;;;14.40;98.00;;;;;;5032735;28;20512;-68
2023/06/02 02:25:18;;;;;;;5.03;2.93;;;14.50;98.00;;;;;;5032544;28;20451;-69
2023/06/02 02:27:45;;;;;;;5.20;3.03;;;14.30;98.00;;;;;;5032388;28;20992;-68
2023/06/02 02:30:14;;;;;;;5.83;2.97;;;14.10;98.00;;;;;;5032487;28;20455;-71
2023/06/02 02:32:44;;;;;;;5.30;3.20;;;13.90;98.00;;;;;;5032630;28;20455;-71
2023/06/02 02:35:11;;;;;;;4.93;3.10;;;13.90;98.00;;;;;;5032378;28;20459;-69
2023/06/02 02:37:39;;;;;;;5.83;3.20;;;13.80;98.00;;;;;;5032266;28;20517;-69
2023/06/02 02:40:07;;;;;;;6.23;3.20;;;13.80;98.00;;;;;;5014476;28;20512;-69
2023/06/02 02:42:37;;;;;;;9.03;3.40;;;13.80;98.00;;;;;;5032217;28;20451;-68
2023/06/02 02:45:04;;;;;;;10.63;3.63;;;13.90;98.00;;;;;;5032426;28;20791;-67
2023/06/02 02:47:32;;;;;;;4.83;2.70;;;13.70;98.00;;;;;;5032183;28;20463;-69
2023/06/02 02:50:00;;;;;;;6.37;3.20;;;13.50;98.00;;;;;;5032442;28;20803;-70
2023/06/02 02:52:28;;;;;;;6.53;3.30;;;13.50;98.00;;;;;;5032204;28;20558;-69
2023/06/02 02:54:55;;;;;;;5.10;2.80;;;13.50;98.00;;;;;;5032375;28;20494;-69
2023/06/02 02:57:22;;;;;;;6.63;3.00;;;13.40;98.00;;;;;;5032136;28;20457;-69
2023/06/02 02:59:49;;;;;;;6.70;3.20;;;13.30;98.00;;;;;;5032302;28;20459;-69
2023/06/02 03:02:16;;;;;;;6.73;3.03;;;13.40;98.00;;;;;;5014624;28;20465;-70
2023/06/02 03:04:43;;;;;;;5.50;3.37;;;13.50;98.00;;;;;;5032188;28;20459;-69
2023/06/02 03:07:12;;;;;;;9.03;4.60;;;13.50;98.00;;;;;;5032150;28;20458;-68
2023/06/02 03:09:39;;;;;;;5.60;3.00;;;13.40;98.00;;;;;;5032157;28;21011;-70
2023/06/02 03:12:07;;;;;;;7.63;3.23;;;13.40;98.00;;;;;;5031778;28;20530;-69
2023/06/02 03:14:34;;;;;;;5.33;3.00;;;13.40;98.00;;;;;;5031995;28;20458;-69
2023/06/02 03:17:01;;;;;;;5.30;2.90;;;13.40;98.00;;;;;;5031919;28;20454;-69
2023/06/02 03:19:28;;;;;;;5.40;3.17;;;13.40;98.00;;;;;;5031713;28;20527;-70
2023/06/02 03:21:56;;;;;;;8.70;3.60;;;13.50;98.00;;;;;;5031859;28;20505;-70
2023/06/02 03:24:25;;;;;;;5.00;2.90;;;13.60;98.00;;;;;;5031753;28;20862;-68
2023/06/02 03:26:55;;;;;;;10.17;3.43;;;13.60;98.00;;;;;;5035961;28;21114;-69
2023/06/02 03:29:22;;;;;;;7.37;3.47;;;13.50;98.00;;;;;;5017997;28;20482;-69
2023/06/02 03:31:52;;;;;;;6.33;3.33;;;13.30;98.00;;;;;;5035788;28;20816;-69
2023/06/02 03:34:20;;;;;;;5.47;2.90;;;13.50;98.00;;;;;;5035789;28;20534;-69
2023/06/02 03:36:48;;;;;;;4.50;2.77;;;13.60;98.00;;;;;;5035664;28;20521;-70
2023/06/02 03:39:15;;;;;;;3.70;2.60;;;13.60;98.00;;;;;;5035605;28;20549;-70
2023/06/02 03:41:44;;;;;;;7.57;3.40;;;13.60;98.00;;;;;;5035413;28;20459;-68
2023/06/02 03:44:11;;;;;;;5.20;2.60;;;13.60;98.00;;;;;;5035611;28;20568;-69
2023/06/02 03:46:38;;;;;;;4.70;2.80;;;13.30;98.00;;;;;;5040326;28;20457;-68
2023/06/02 03:49:05;;;;;;;5.77;3.17;;;13.30;98.00;;;;;;5055406;28;20485;-69
2023/06/02 03:51:33;;;;;;;7.47;3.30;;;13.70;98.00;;;;;;5055440;28;20461;-68
2023/06/02 03:54:01;;;;;;;6.20;3.13;;;13.70;98.00;;;;;;5055684;28;20461;-69
2023/06/02 03:56:28;;;;;;;6.20;2.70;;;13.60;98.00;;;;;;5055352;28;20817;-69
2023/06/02 03:58:57;;;;;;;7.30;3.10;;;13.30;98.00;;;;;;5037596;28;20453;-68
2023/06/02 04:01:24;;;;;;;4.57;2.63;;;13.60;98.00;;;;;;5055467;28;20457;-69
2023/06/02 04:03:51;;;;;;;4.83;3.00;;;13.80;98.00;;;;;;5037931;28;20857;-70
2023/06/02 04:06:19;;;;;;;5.93;3.33;;;13.80;98.00;;;;;;5055483;28;20458;-69
2023/06/02 04:08:46;;;;;;;4.43;2.63;;;13.80;98.00;;;;;;5055310;28;20485;-68
2023/06/02 04:11:13;;;;;;;5.80;3.50;;;13.70;98.00;;;;;;5055229;28;20523;-68
2023/06/02 04:13:41;;;;;;;4.17;2.73;;;13.80;98.00;;;;;;5054866;28;20461;-70
2023/06/02 04:16:09;;;;;;;4.77;2.80;;;13.90;98.00;;;;;;5055176;28;20469;-70
2023/06/02 04:18:39;;;;;;;5.37;2.97;;;13.80;98.00;;;;;;5054668;28;20473;-70
2023/06/02 04:21:06;;;;;;;5.23;2.93;;;13.70;98.00;;;;;;5037130;28;20531;-69
2023/06/02 04:23:33;;;;;;;5.83;3.50;;;13.50;98.00;;;;;;5054777;28;20862;-69
2023/06/02 04:26:00;;;;;;;5.90;2.90;;;13.40;98.00;;;;;;5054614;28;20457;-69
2023/06/02 04:28:28;;;;;;;4.60;2.97;;;13.20;98.00;;;;;;5054678;28;20799;-68
2023/06/02 04:30:56;;;;;;;6.03;3.30;;;13.10;98.00;;;;;;5054550;28;20461;-69
2023/06/02 04:33:26;;;;;;;7.27;3.67;;;13.00;98.00;;;;;;5054721;28;20462;-70
2023/06/02 04:35:53;;;;;;;11.53;3.50;;;13.00;98.00;;;;;;5054364;28;20453;-68
2023/06/02 04:38:20;;;;;;;6.97;3.30;;;13.10;98.00;;;;;;5054589;28;20527;-70
2023/06/02 04:40:47;;;;;;;6.27;3.20;;;13.30;98.00;;;;;;5054305;28;20464;-69
2023/06/02 04:43:15;;;;;;;5.77;3.00;;;13.40;98.00;;;;;;5054501;28;20462;-69
2023/06/02 04:45:45;;;;;;;4.93;2.90;;;13.50;98.00;;;;;;5054362;28;20533;-70
2023/06/02 04:48:13;;;;;;;5.00;3.07;;;13.60;98.00;;;;;;5054525;28;20540;-70
2023/06/02 04:50:41;;;;;;;9.00;3.10;;;13.60;98.00;;;;;;5054397;28;20684;-69
2023/06/02 04:53:08;;;;;;;5.73;3.60;;;13.60;98.00;;;;;;5054439;28;20516;-70
2023/06/02 04:55:35;;;;;;;5.90;3.47;;;13.60;98.00;;;;;;5053926;28;20477;-70
2023/06/02 04:58:02;;;;;;;6.70;3.47;;;13.50;98.00;;;;;;5054476;28;20954;-70
2023/06/02 05:00:30;;;;;;;5.40;3.07;;;13.50;98.00;;;;;;5054424;28;20465;-69
2023/06/02 05:02:57;;;;;;;5.47;3.03;;;13.40;98.00;;;;;;5054322;28;20970;-68
2023/06/02 05:05:24;;;;;;;6.30;3.47;;;13.40;98.00;;;;;;5054275;28;20454;-68
2023/06/02 05:07:53;;;;;;;7.47;3.50;;;13.70;98.00;;;;;;5053895;28;20978;-69
2023/06/02 05:10:23;;;;;;;10.50;3.83;;;13.90;98.00;;;;;;5053920;28;20527;-68
2023/06/02 05:12:52;;;;;;;6.37;3.13;;;14.00;98.00;;;;;;5053977;28;20465;-69
2023/06/02 05:15:20;;;;;;;7.77;3.97;;;13.90;98.00;;;;;;5053913;28;20797;-69
2023/06/02 05:17:47;;;;;;;7.93;4.03;;;14.10;98.00;;;;;;5053423;28;20862;-70
2023/06/02 05:20:14;;;;;;;10.00;4.00;;;14.20;98.00;;;;;;5053809;28;20466;-69
2023/06/02 05:22:41;;;;;;;5.77;3.30;;;14.30;98.00;;;;;;5053984;28;20461;-69
2023/06/02 05:25:10;;;;;;;12.00;3.67;;;14.40;98.00;;;;;;5053614;28;20936;-71
2023/06/02 05:27:38;;;;;;;7.17;3.40;;;14.50;98.00;;;;;;5053526;28;20492;-68
2023/06/02 05:30:06;;;;;;;9.10;3.47;;;14.60;98.00;;;;;;5053529;28;20910;-69
2023/06/02 05:32:33;;;;;;;8.40;3.67;;;14.80;98.00;;;;;;5035890;28;20867;-69
2023/06/02 05:35:01;;;;;;;9.30;3.37;;;14.90;98.00;;;;;;5053518;28;20461;-70
2023/06/02 05:37:29;;;;;;;6.63;3.50;;;15.10;98.00;;;;;;5053378;28;20465;-70
2023/06/02 05:39:56;;;;;;;7.60;3.77;;;15.30;98.00;;;;;;5052114;28;20458;-70
2023/06/02 05:42:26;;;;;;;7.73;3.50;;;15.20;98.00;;;;;;5053356;28;20520;-69
2023/06/02 05:44:53;;;;;;;6.27;3.43;;;15.40;98.00;;;;;;5053237;28;20493;-68
2023/06/02 05:47:20;;;;;;;14.20;3.40;;;15.50;98.00;;;;;;5052717;28;21115;-65
2023/06/02 05:49:47;;;;;;;9.43;4.17;;;15.50;98.00;;;;;;5053369;28;20543;-65
2023/06/02 05:52:14;;;;;;;7.60;3.50;;;15.60;98.00;;;;;;5053223;28;20449;-65
2023/06/02 05:54:41;;;;;;;9.33;3.50;;;15.50;98.00;;;;;;5035688;28;20951;-65
2023/06/02 05:57:08;;;;;;;6.30;3.90;;;15.60;98.00;;;;;;5034590;28;20814;-65
2023/06/02 05:59:37;;;;;;;12.40;3.77;;;15.60;98.00;;;;;;5053262;28;20861;-65
2023/06/02 06:02:04;;;;;;;6.70;3.50;;;15.70;98.00;;;;;;5052988;28;20469;-65
2023/06/02 06:04:31;;;;;;;9.90;3.70;;;15.80;98.00;;;;;;5052429;28;20963;-65
2023/06/02 06:07:00;;;;;;;7.00;3.60;;;15.90;98.00;;;;;;5052644;28;20457;-65
2023/06/02 06:09:27;;;;;;;7.77;3.73;;;16.00;98.00;;;;;;5034871;28;20478;-64
2023/06/02 06:11:54;;;;;;;14.13;4.13;;;16.00;98.00;;;;;;5035227;28;20458;-65
2023/06/02 06:14:21;;;;;;;9.00;3.63;;;16.00;98.00;;;;;;5052790;28;20466;-65
2023/06/02 06:16:49;;;;;;;8.47;4.20;;;16.10;98.00;;;;;;5052647;28;20457;-65
2023/06/02 06:19:18;;;;;;;10.43;4.37;;;16.20;98.00;;;;;;5034909;28;20512;-65
2023/06/02 06:21:46;;;;;;;5.93;3.53;;;16.30;98.00;;;;;;5052774;28;20458;-64
2023/06/02 06:24:13;;;;;;;10.20;4.23;;;16.40;98.00;;;;;;5052676;28;20464;-63
2023/06/02 06:26:41;;;;;;;8.20;4.10;;;16.50;98.00;;;;;;5052555;28;20808;-63
2023/06/02 06:29:08;;;;;;;10.53;4.07;;;16.50;98.00;;;;;;5052563;28;20477;-63
2023/06/02 06:31:35;;;;;;;9.63;3.93;;;16.60;98.00;;;;;;5052514;28;20453;-63
2023/06/02 06:34:08;;;;;;;9.83;4.20;;;16.60;98.00;;;;;;5052567;28;20450;-63
2023/06/02 06:36:36;;;;;;;9.23;4.00;;;16.70;98.00;;;;;;5052453;28;20450;-64
2023/06/02 06:39:04;;;;;;;14.20;3.90;;;16.90;98.00;;;;;;5052482;28;20496;-64
2023/06/02 06:41:31;;;;;;;7.70;3.70;;;17.00;98.00;;;;;;5052327;28;20461;-64
2023/06/02 06:43:58;;;;;;;11.03;3.87;;;17.10;98.00;;;;;;5034738;28;20466;-64
2023/06/02 06:46:25;;;;;;;15.73;4.30;;;17.20;98.00;;;;;;5052399;28;20450;-64
2023/06/02 06:48:52;;;;;;;11.10;4.30;;;17.30;98.00;;;;;;5052328;28;20458;-64
2023/06/02 06:51:21;;;;;;;7.37;3.40;;;17.40;98.00;;;;;;5052287;28;20535;-64
2023/06/02 06:53:48;;;;;;;6.50;3.67;;;17.30;98.00;;;;;;5052078;28;20959;-64
2023/06/02 06:56:15;;;;;;;8.23;3.70;;;17.40;98.00;;;;;;5051887;28;20469;-64
2023/06/02 06:58:43;;;;;;;10.63;4.60;;;17.40;98.00;;;;;;5038328;28;20493;-64
2023/06/02 07:01:12;;;;;;;6.90;3.70;;;17.40;98.00;;;;;;5031895;28;21138;-70
2023/06/02 07:03:39;;;;;;;9.53;4.03;;;17.50;98.00;;;;;;5030882;28;20463;-70
2023/06/02 07:06:06;;;;;;;10.57;4.30;;;17.60;98.00;;;;;;5031436;28;20534;-70
2023/06/02 07:08:36;;;;;;;8.53;3.97;;;17.60;98.00;;;;;;5031784;28;20847;-70
2023/06/02 07:11:03;;;;;;;12.37;5.10;;;17.80;98.00;;;;;;5031619;28;20486;-70
2023/06/02 07:13:31;;;;;;;5.20;3.20;;;17.60;98.00;;;;;;5031700;28;20451;-70
2023/06/02 07:15:58;;;;;;;7.87;3.60;;;17.50;98.00;;;;;;5031780;28;20463;-70
2023/06/02 07:18:25;;;;;;;11.47;4.40;;;17.70;98.00;;;;;;5031269;28;20871;-70
2023/06/02 07:20:52;;;;;;;9.40;3.77;;;17.80;98.00;;;;;;5029961;28;20466;-70
2023/06/02 07:23:20;;;;;;;7.70;4.30;;;17.70;98.00;;;;;;5030194;28;20454;-70
2023/06/02 07:25:48;;;;;;;8.17;3.90;;;17.70;98.00;;;;;;5031353;28;20459;-70
2023/06/02 07:28:16;;;;;;;8.00;4.43;;;17.70;98.00;;;;;;5031027;28;20459;-70
2023/06/02 07:30:48;;;;;;;17.53;4.50;;;17.70;98.00;;;;;;5031025;28;20992;-70
2023/06/02 07:33:15;;;;;;;8.27;3.90;;;18.00;98.00;;;;;;5031093;28;20520;-70
2023/06/02 07:35:42;;;;;;;13.20;4.30;;;17.90;98.00;;;;;;5031272;28;20546;-70
2023/06/02 07:38:10;;;;;;;8.80;4.50;;;18.00;98.00;;;;;;5031028;28;20877;-70
2023/06/02 07:40:37;;;;;;;8.77;3.83;;;18.10;98.00;;;;;;5031044;28;20455;-70
2023/06/02 07:43:05;;;;;;;9.77;4.80;;;18.30;98.00;;;;;;5031173;28;20951;-70
2023/06/02 07:45:32;;;;;;;10.80;4.50;;;18.30;98.00;;;;;;5030990;28;20467;-70
2023/06/02 07:47:59;;;;;;;6.40;3.47;;;18.30;98.00;;;;;;5031149;28;20458;-70
2023/06/02 07:50:27;;;;;;;7.33;3.70;;;18.50;98.00;;;;;;5030995;28;20524;-70
2023/06/02 07:52:55;;;;;;;8.13;3.97;;;18.70;98.00;;;;;;5031010;28;20920;-70
2023/06/02 07:55:23;;;;;;;8.97;3.90;;;18.60;98.00;;;;;;5030797;28;20542;-69
2023/06/02 07:57:52;;;;;;;6.97;3.63;;;18.80;98.00;;;;;;5030888;28;20455;-70
2023/06/02 08:00:22;;;;;;;8.17;4.13;;;19.00;98.00;;;;;;5030817;28;20462;-70
2023/06/02 08:02:51;;;;;;;8.23;4.20;;;18.90;98.00;;;;;;5031066;28;20482;-70
2023/06/02 08:05:19;;;;;;;10.63;3.90;;;18.90;98.00;;;;;;5030763;28;20544;-70
2023/06/02 08:07:49;;;;;;;9.60;3.23;;;19.00;98.00;;;;;;5031090;28;20458;-72
2023/06/02 08:10:16;;;;;;;6.57;3.60;;;19.10;98.00;;;;;;5030234;28;20540;-72
2023/06/02 08:12:43;;;;;;;7.90;3.57;;;19.40;98.00;;;;;;5034489;28;20804;-71
2023/06/02 08:15:11;;;;;;;7.70;3.80;;;19.60;98.00;;;;;;5034697;28;20524;-70
2023/06/02 08:17:39;;;;;;;7.47;4.03;;;19.90;98.00;;;;;;5016721;28;20458;-70
2023/06/02 08:20:07;;;;;;;9.17;4.57;;;20.10;98.00;;;;;;5034327;28;20477;-70
2023/06/02 08:22:36;;;;;;;9.80;3.83;;;20.10;98.00;;;;;;5034189;28;20465;-70
2023/06/02 08:25:03;;;;;;;6.90;4.00;;;20.00;98.00;;;;;;5034400;28;20553;-70
2023/06/02 08:27:30;;;;;;;9.60;4.47;;;20.10;98.00;;;;;;5016854;28;20462;-70
2023/06/02 08:29:57;;;;;;;7.87;4.17;;;20.10;98.00;;;;;;5016624;28;21131;-70
2023/06/02 08:32:25;;;;;;;9.27;3.67;;;20.10;98.00;;;;;;5034182;28;20454;-70
2023/06/02 08:34:56;;;;;;;7.63;4.20;;;20.10;98.00;;;;;;5034095;28;20463;-70
2023/06/02 08:37:25;;;;;;;7.10;3.93;;;20.20;98.00;;;;;;5034105;28;20486;-70
2023/06/02 08:39:52;;;;;;;7.37;4.20;;;20.40;98.00;;;;;;5034212;28;20486;-70
2023/06/02 08:42:19;;;;;;;12.13;4.50;;;20.40;98.00;;;;;;5034094;28;20447;-70
2023/06/02 08:44:46;;;;;;;7.53;3.60;;;20.40;98.00;;;;;;5034231;28;20462;-70
2023/06/02 08:47:15;;;;;;;7.63;3.90;;;20.50;98.00;;;;;;5016278;28;20462;-70
2023/06/02 08:49:43;;;;;;;9.77;4.13;;;20.60;98.00;;;;;;5033716;28;20517;-70
2023/06/02 08:52:16;;;;;;;10.37;4.20;;;20.90;98.00;;;;;;5016226;28;20678;-70
2023/06/02 08:54:45;;;;;;;9.10;3.97;;;21.10;98.00;;;;;;5033854;28;20570;-70
2023/06/02 08:57:16;;;;;;;8.10;4.40;;;21.10;98.00;;;;;;5015839;28;20454;-70
2023/06/02 08:59:43;;;;;;;9.00;4.00;;;21.30;98.00;;;;;;5016534;28;20542;-70
2023/06/02 09:02:10;;;;;;;8.37;4.10;;;21.40;98.00;;;;;;5033452;28;20517;-69
2023/06/02 09:04:37;;;;;;;8.87;4.30;;;21.50;98.00;;;;;;5016125;28;20478;-70
2023/06/02 09:07:19;;;;;;;6.27;3.80;;;21.40;98.00;;;;;;5033509;28;20516;-70
2023/06/02 09:09:49;;;;;;;6.57;3.87;;;21.50;97.70;;;;;;5033814;28;20470;-70
2023/06/02 09:12:17;;;;;;;12.00;4.17;;;21.60;98.00;;;;;;5033256;28;20872;-70
2023/06/02 09:14:45;;;;;;;10.10;4.20;;;21.80;98.00;;;;;;5033520;28;20462;-69
2023/06/02 09:17:25;;;;;;;7.33;3.90;;;21.90;98.00;;;;;;5033074;28;20561;-70
2023/06/02 09:19:53;;;;;;;8.53;3.93;;;22.10;97.70;;;;;;5033356;28;20867;-70
2023/06/02 09:22:22;;;;;;;9.93;4.40;;;22.20;97.90;;;;;;5032105;28;20467;-70
2023/06/02 09:24:50;;;;;;;8.20;3.67;;;22.20;95.30;;;;;;5015537;28;20462;-70
2023/06/02 09:27:17;;;;;;;7.00;3.70;;;22.30;96.60;;;;;;5032984;28;20940;-70
2023/06/02 09:29:48;;;;;;;7.37;3.93;;;22.20;95.40;;;;;;5015403;28;20467;-70
2023/06/02 09:32:18;;;;;;;5.87;3.53;;;22.20;97.30;;;;;;5032834;28;20487;-69
2023/06/02 09:34:46;;;;;;;10.83;4.37;;;22.30;95.00;;;;;;5033566;28;20469;-70
2023/06/02 09:37:15;;;;;;;6.47;3.97;;;22.40;94.20;;;;;;5033210;28;20516;-70
2023/06/02 09:39:46;;;;;;;6.50;3.57;;;22.60;95.10;;;;;;5033138;28;20534;-70
2023/06/02 09:42:14;;;;;;;8.03;4.37;;;22.80;95.70;;;;;;5032884;28;20615;-70
2023/06/02 09:44:42;;;;;;;8.73;4.23;;;22.80;92.60;;;;;;5015126;28;20454;-70
2023/06/02 09:47:20;;;;;;;6.10;3.73;;;22.50;93.10;;;;;;5031121;28;20446;-70
2023/06/02 09:49:47;;;;;;;7.40;4.13;;;22.50;94.70;;;;;;5031682;28;20490;-70
2023/06/02 09:52:15;;;;;;;8.17;4.20;;;22.60;95.50;;;;;;5031296;28;20486;-70
2023/06/02 09:54:45;;;;;;;7.00;4.00;;;22.70;95.30;;;;;;5031803;28;20454;-69
2023/06/02 09:57:12;;;;;;;9.97;4.47;;;22.80;95.60;;;;;;5031088;28;20471;-69
2023/06/02 09:59:43;;;;;;;9.90;4.50;;;22.80;94.40;;;;;;5031393;28;20462;-70
2023/06/02 10:02:13;;;;;;;5.70;4.00;;;22.80;94.70;;;;;;5032123;28;20447;-69
2023/06/02 10:04:48;;;;;;;8.63;3.77;;;22.90;95.80;;;;;;5032407;28;20808;-70
2023/06/02 10:07:28;;;;;;;12.50;4.30;;;23.20;93.50;;;;;;5032098;28;20960;-70
2023/06/02 10:10:15;;;;;;;7.07;4.27;;;23.40;92.90;;;;;;5031874;28;20951;-70
2023/06/02 10:12:53;;;;;;;10.60;4.60;;;23.50;93.80;;;;;;5032109;28;20838;-70
2023/06/02 10:15:54;;;;;;;8.07;4.20;;;23.70;92.80;;;;;;5031935;28;20466;-70
2023/06/02 10:18:47;;;;;;;7.67;4.43;;;23.90;93.60;;;;;;5031744;28;20473;-71
2023/06/02 10:21:25;;;;;;;7.20;3.70;;;24.10;91.60;;;;;;5031717;28;20455;-71
2023/06/02 10:24:01;;;;;;;7.97;4.00;;;24.20;91.70;;;;;;5031935;28;20454;-71
2023/06/02 10:26:43;;;;;;;6.30;4.10;;;24.40;90.10;;;;;;5037137;28;20519;-70
2023/06/02 10:29:13;;;;;;;8.50;4.23;;;24.50;90.60;;;;;;5033761;28;20458;-70
2023/06/02 10:31:40;;;;;;;8.60;4.63;;;24.60;89.10;;;;;;5051594;28;20481;-70
2023/06/02 10:34:07;;;;;;;8.30;4.20;;;24.60;88.90;;;;;;5033467;28;21017;-70
2023/06/02 10:37:10;;;;;;;7.43;4.37;;;24.60;88.70;;;;;;5051458;28;20485;-70
2023/06/02 10:39:58;;;;;;;7.53;4.30;;;24.60;88.90;;;;;;5051252;28;20536;-70
2023/06/02 10:42:30;;;;;;;7.40;4.30;;;24.60;90.80;;;;;;5044794;28;20465;-69
2023/06/02 10:45:30;;;;;;;12.43;4.60;;;24.70;90.70;;;;;;5051494;28;20825;-69
2023/06/02 10:47:57;;;;;;;7.47;4.33;;;24.90;88.90;;;;;;5050354;28;20461;-70
2023/06/02 10:50:24;;;;;;;7.87;4.13;;;25.10;88.70;;;;;;5050928;28;20471;-70
2023/06/02 10:53:13;;;;;;;9.70;4.20;;;25.30;88.60;;;;;;5050883;28;20512;-70
2023/06/02 10:55:41;;;;;;;9.43;4.43;;;25.40;88.40;;;;;;5050741;28;20478;-69
2023/06/02 10:58:12;;;;;;;8.20;4.20;;;25.50;88.70;;;;;;5051154;28;20540;-70
2023/06/02 11:00:46;;;;;;;7.53;4.57;;;25.60;87.30;;;;;;5051264;28;20960;-70
2023/06/02 11:03:44;;;;;;;14.23;4.10;;;25.80;85.40;;;;;;5050786;28;20947;-69
2023/06/02 11:06:19;;;;;;;9.60;4.97;;;26.00;85.30;;;;;;5051045;28;20446;-70
2023/06/02 11:08:51;;;;;;;6.93;4.20;;;26.00;85.30;;;;;;5050911;28;20461;-69
2023/06/02 11:11:53;;;;;;;8.20;4.43;;;25.80;85.30;;;;;;5050857;28;20532;-69
2023/06/02 11:14:23;;;;;;;7.63;4.20;;;26.00;85.10;;;;;;4969768;28;20505;-69
2023/06/02 11:17:35;;;;;;;8.07;3.83;;;26.10;85.20;;;;;;5035189;28;20465;-69
2023/06/02 11:20:04;;;;;;;7.97;4.20;;;26.30;84.60;;;;;;5003015;28;20461;-70
2023/06/02 11:22:33;;;;;;;7.47;4.20;;;26.40;85.30;;;;;;5049978;28;20468;-70
2023/06/02 11:25:02;;;;;;;6.70;4.20;;;26.30;84.10;;;;;;5049784;28;20462;-70
2023/06/02 11:27:37;;;;;;;6.60;3.90;;;26.40;86.40;;;;;;5036252;28;20459;-70
2023/06/02 11:30:12;;;;;;;6.20;3.50;;;26.50;84.90;;;;;;5030067;28;20494;-70
2023/06/02 11:32:39;;;;;;;6.77;4.00;;;26.80;83.80;;;;;;5030077;28;20536;-70
2023/06/02 11:35:09;;;;;;;6.00;3.83;;;27.00;83.00;;;;;;5029663;28;20470;-70
2023/06/02 11:37:38;;;;;;;7.97;4.27;;;27.20;83.50;;;;;;5029933;28;20458;-70
2023/06/02 11:40:07;;;;;;;9.20;4.93;;;27.40;82.50;;;;;;5029851;28;20475;-70
2023/06/02 11:42:39;;;;;;;6.87;4.10;;;27.60;80.50;;;;;;5029581;28;20645;-71
2023/06/02 11:45:19;;;;;;;6.43;3.97;;;27.80;81.60;;;;;;5028866;28;20459;-71
2023/06/02 11:47:47;;;;;;;5.97;3.63;;;28.00;79.70;;;;;;5033209;28;21036;-71
2023/06/02 11:50:18;;;;;;;8.00;4.43;;;28.30;78.30;;;;;;5016363;28;20501;-71
2023/06/02 11:52:46;;;;;;;7.53;4.27;;;28.40;80.60;;;;;;5033378;28;20521;-70
2023/06/02 11:55:13;;;;;;;7.00;4.40;;;28.50;79.90;;;;;;5034067;28;20854;-71
2023/06/02 11:57:41;;;;;;;7.47;4.03;;;28.50;80.10;;;;;;5033824;28;20505;-71
2023/06/02 12:00:16;;;;;;;7.10;3.93;;;28.60;81.10;;;;;;5033700;28;20463;-71
2023/06/02 12:02:51;;;;;;;7.90;4.43;;;28.80;77.80;;;;;;5033677;28;20485;-71
2023/06/02 12:05:34;;;;;;;6.37;4.17;;;28.70;78.80;;;;;;5017200;28;20469;-69
2023/06/02 12:08:11;;;;;;;6.60;3.83;;;28.90;78.80;;;;;;5033835;28;20966;-69
2023/06/02 12:10:39;;;;;;;6.90;4.30;;;28.80;78.30;;;;;;5033810;28;20451;-69
2023/06/02 12:13:06;;;;;;;6.67;4.07;;;29.00;79.00;;;;;;5016429;28;20494;-69
2023/06/02 12:15:36;;;;;;;7.37;4.30;;;29.10;76.70;;;;;;5033703;28;20450;-69
2023/06/02 12:18:04;;;;;;;7.53;4.10;;;29.20;76.40;;;;;;4994668;28;1142185;-70
2023/06/02 12:20:36;;;;;;;7.10;4.30;;;29.30;77.70;;;;;;5034944;28;20222;-70
2023/06/02 12:23:04;;;;;;;9.47;4.70;;;29.40;76.80;;;;;;5050799;28;20473;-70
2023/06/02 12:25:30;;;;;;;8.67;4.63;;;29.60;76.30;;;;;;5054482;28;20556;-70
2023/06/02 12:28:07;;;;;;;7.70;4.07;;;29.70;76.70;;;;;;5054250;28;20452;-70
2023/06/02 12:30:35;;;;;;;7.73;3.97;;;29.60;77.20;;;;;;5054006;28;20460;-70
2023/06/02 12:33:06;;;;;;;8.47;4.53;;;29.70;76.60;;;;;;5053897;28;20485;-70
2023/06/02 12:35:34;;;;;;;7.03;3.97;;;29.80;76.30;;;;;;5053856;28;20456;-70
2023/06/02 12:38:03;;;;;;;11.23;4.60;;;29.90;75.10;;;;;;5053807;28;20823;-71
2023/06/02 12:40:30;;;;;;;6.33;4.03;;;29.90;75.20;;;;;;5054009;28;20948;-71
2023/06/02 12:42:57;;;;;;;8.30;3.80;;;30.00;74.90;;;;;;5053883;28;20461;-71
2023/06/02 12:45:24;;;;;;;7.10;4.27;;;30.10;74.90;;;;;;5053837;28;20456;-71
2023/06/02 12:47:54;;;;;;;6.67;3.90;;;30.10;72.50;;;;;;5054138;28;20453;-71
2023/06/02 12:50:22;;;;;;;5.00;3.50;;;29.90;72.10;;;;;;5054138;28;20454;-71
2023/06/02 12:52:50;;;;;;;6.20;4.07;;;29.90;74.20;;;;;;5053954;28;20482;-70
2023/06/02 12:55:18;;;;;;;6.17;4.07;;;30.00;73.70;;;;;;5053743;28;20465;-70
2023/06/02 12:57:48;;;;;;;6.23;3.87;;;30.00;73.30;;;;;;5053342;28;20457;-70